createdAt,value
2023-01-29T00:00:01.478Z,2.10
2023-01-29T00:01:01.496Z,2.40
2023-01-29T00:02:01.502Z,2.30
2023-01-29T00:03:01.481Z,2.40
2023-01-29T00:04:01.426Z,2.70
2023-01-29T00:05:12.565Z,2.40
2023-01-29T00:06:01.401Z,2.40
2023-01-29T00:07:01.419Z,2.30
2023-01-29T00:08:01.378Z,2.10
2023-01-29T00:09:01.401Z,2.60
2023-01-29T00:10:01.403Z,2.40
2023-01-29T00:11:01.360Z,2.10
2023-01-29T00:12:01.342Z,2.50
2023-01-29T00:13:01.363Z,2.20
2023-01-29T00:14:01.313Z,2.70
2023-01-29T00:15:01.329Z,2.20
2023-01-29T00:16:01.304Z,2.20
2023-01-29T00:17:01.482Z,2.90
2023-01-29T00:18:01.273Z,3.00
2023-01-29T00:19:01.293Z,2.80
2023-01-29T00:20:01.263Z,2.50
2023-01-29T00:21:01.264Z,2.20
2023-01-29T00:22:01.248Z,2.60
2023-01-29T00:23:01.238Z,2.10
2023-01-29T00:24:01.315Z,2.60
2023-01-29T00:25:01.231Z,2.10
2023-01-29T00:26:01.201Z,2.30
2023-01-29T00:27:01.199Z,2.80
2023-01-29T00:28:01.176Z,2.60
2023-01-29T00:29:01.179Z,2.10
2023-01-29T00:30:01.163Z,2.40
2023-01-29T00:31:01.243Z,2.40
2023-01-29T00:32:01.306Z,2.50
2023-01-29T00:33:01.140Z,2.30
2023-01-29T00:34:01.158Z,2.70
2023-01-29T00:35:01.145Z,1.80
2023-01-29T00:36:01.108Z,1.90
2023-01-29T00:37:01.099Z,1.80
2023-01-29T00:38:01.080Z,2.30
2023-01-29T00:39:01.113Z,2.30
2023-01-29T00:40:01.071Z,1.60
2023-01-29T00:41:01.076Z,2.30
2023-01-29T00:42:01.028Z,2.50
2023-01-29T00:43:01.037Z,2.30
2023-01-29T00:44:01.025Z,2.40
2023-01-29T00:45:01.031Z,2.70
2023-01-29T00:46:00.989Z,2.00
2023-01-29T00:47:01.020Z,2.10
2023-01-29T00:48:01.000Z,2.20
2023-01-29T00:49:01.024Z,2.40
2023-01-29T00:50:00.952Z,2.10
2023-01-29T00:51:00.963Z,2.40
2023-01-29T00:52:00.942Z,2.70
2023-01-29T00:53:00.936Z,2.30
2023-01-29T00:54:00.916Z,2.60
2023-01-29T00:55:00.960Z,2.60
2023-01-29T00:56:00.890Z,2.50
2023-01-29T00:57:00.914Z,2.40
2023-01-29T00:58:00.877Z,2.70
2023-01-29T00:59:00.875Z,2.30
2023-01-29T01:00:00.881Z,2.60
2023-01-29T01:01:00.866Z,2.10
2023-01-29T01:02:00.928Z,1.90
2023-01-29T01:03:00.839Z,2.40
2023-01-29T01:04:00.841Z,2.40
2023-01-29T01:05:00.804Z,2.70
2023-01-29T01:06:00.822Z,2.50
2023-01-29T01:07:00.782Z,2.10
2023-01-29T01:08:00.826Z,2.60
2023-01-29T01:09:00.761Z,2.40
2023-01-29T01:10:00.805Z,2.10
2023-01-29T01:11:00.751Z,2.20
2023-01-29T01:12:00.749Z,2.20
2023-01-29T01:13:00.740Z,2.20
2023-01-29T01:14:00.753Z,2.20
2023-01-29T01:15:00.699Z,2.60
2023-01-29T01:16:00.954Z,2.30
2023-01-29T01:17:00.681Z,2.60
2023-01-29T01:18:00.702Z,2.30
2023-01-29T01:19:00.657Z,2.80
2023-01-29T01:20:00.684Z,2.60
2023-01-29T01:21:00.705Z,2.10
2023-01-29T01:22:00.663Z,2.20
2023-01-29T01:23:00.639Z,2.30
2023-01-29T01:24:00.643Z,2.20
2023-01-29T01:25:00.609Z,2.40
2023-01-29T01:26:00.658Z,2.20
2023-01-29T01:27:00.581Z,2.70
2023-01-29T01:28:04.984Z,2.10
2023-01-29T01:29:00.584Z,1.90
2023-01-29T01:30:00.577Z,2.00
2023-01-29T01:31:00.565Z,2.30
2023-01-29T01:32:00.622Z,2.30
2023-01-29T01:33:00.533Z,2.30
2023-01-29T01:34:00.539Z,2.50
2023-01-29T01:35:00.519Z,2.40
2023-01-29T01:36:00.491Z,2.50
2023-01-29T01:37:00.525Z,2.40
2023-01-29T01:38:00.477Z,2.10
2023-01-29T01:39:00.496Z,2.30
2023-01-29T01:40:00.464Z,2.50
2023-01-29T01:41:00.448Z,2.00
2023-01-29T01:42:00.433Z,2.10
2023-01-29T01:43:00.443Z,2.20
2023-01-29T01:44:00.409Z,2.90
2023-01-29T01:45:00.445Z,2.20
2023-01-29T01:46:00.542Z,2.40
2023-01-29T01:47:00.405Z,2.80
2023-01-29T01:48:00.367Z,2.40
2023-01-29T01:49:00.383Z,2.20
2023-01-29T01:50:00.353Z,2.40
2023-01-29T01:51:00.390Z,2.40
2023-01-29T01:52:00.325Z,2.80
2023-01-29T01:53:00.354Z,2.20
2023-01-29T01:54:00.328Z,2.50
2023-01-29T01:55:00.319Z,2.20
2023-01-29T01:56:00.312Z,2.20
2023-01-29T01:57:00.323Z,2.20
2023-01-29T01:58:00.270Z,2.00
2023-01-29T01:59:00.296Z,2.20
2023-01-29T02:00:00.244Z,2.20
2023-01-29T02:01:00.342Z,2.20
2023-01-29T02:02:00.353Z,1.90
2023-01-29T02:03:00.254Z,2.10
2023-01-29T02:04:00.205Z,2.30
2023-01-29T02:05:00.236Z,2.30
2023-01-29T02:06:00.212Z,2.20
2023-01-29T02:07:00.201Z,2.00
2023-01-29T02:08:00.210Z,2.10
2023-01-29T02:09:00.181Z,2.40
2023-01-29T02:10:00.148Z,2.10
2023-01-29T02:11:00.170Z,2.60
2023-01-29T02:12:00.127Z,3.10
2023-01-29T02:13:00.145Z,2.20
2023-01-29T02:14:00.111Z,2.90
2023-01-29T02:15:00.159Z,2.40
2023-01-29T02:16:00.101Z,2.20
2023-01-29T02:17:00.113Z,2.10
2023-01-29T02:18:00.102Z,2.20
2023-01-29T02:19:00.112Z,2.50
2023-01-29T02:20:00.058Z,2.60
2023-01-29T02:21:00.088Z,2.10
2023-01-29T02:22:00.032Z,2.60
2023-01-29T02:23:02.064Z,1.90
2023-01-29T02:24:00.168Z,2.00
2023-01-29T02:25:00.011Z,2.20
2023-01-29T02:25:59.988Z,3.00
2023-01-29T02:27:00.004Z,2.20
2023-01-29T02:27:59.981Z,2.20
2023-01-29T02:28:59.983Z,2.60
2023-01-29T02:29:59.946Z,1.90
2023-01-29T02:30:59.979Z,2.00
2023-01-29T02:31:59.947Z,2.10
2023-01-29T02:32:59.931Z,2.10
2023-01-29T02:33:59.913Z,2.50
2023-01-29T02:34:59.941Z,2.50
2023-01-29T02:35:59.882Z,2.20
2023-01-29T02:36:59.894Z,2.30
2023-01-29T02:37:59.869Z,2.70
2023-01-29T02:38:59.885Z,2.40
2023-01-29T02:39:59.846Z,2.50
2023-01-29T02:40:59.885Z,2.60
2023-01-29T02:41:59.831Z,2.00
2023-01-29T02:42:59.844Z,2.20
2023-01-29T02:43:59.809Z,2.50
2023-01-29T02:44:59.809Z,2.50
2023-01-29T02:45:59.831Z,2.40
2023-01-29T02:46:59.813Z,2.30
2023-01-29T02:47:59.769Z,2.20
2023-01-29T02:48:59.796Z,2.10
2023-01-29T02:49:59.742Z,2.20
2023-01-29T02:50:59.747Z,2.30
2023-01-29T02:51:59.740Z,2.40
2023-01-29T02:52:59.744Z,2.10
2023-01-29T02:53:59.713Z,2.50
2023-01-29T02:54:59.741Z,2.70
2023-01-29T02:55:59.699Z,2.90
2023-01-29T02:56:59.715Z,2.40
2023-01-29T02:57:59.685Z,2.30
2023-01-29T02:58:59.686Z,2.20
2023-01-29T02:59:59.670Z,2.20
2023-01-29T03:00:59.761Z,2.40
2023-01-29T03:01:59.703Z,2.40
2023-01-29T03:02:59.644Z,2.50
2023-01-29T03:03:59.608Z,2.40
2023-01-29T03:04:59.634Z,1.90
2023-01-29T03:05:59.585Z,2.50
2023-01-29T03:06:59.604Z,2.30
2023-01-29T03:07:59.571Z,2.40
2023-01-29T03:08:59.582Z,2.60
2023-01-29T03:09:59.542Z,2.60
2023-01-29T03:10:59.565Z,3.90
2023-01-29T03:11:59.522Z,2.80
2023-01-29T03:12:59.540Z,2.50
2023-01-29T03:13:59.507Z,2.20
2023-01-29T03:14:59.521Z,2.70
2023-01-29T03:15:59.481Z,2.40
2023-01-29T03:16:59.486Z,2.20
2023-01-29T03:17:59.473Z,2.10
2023-01-29T03:18:59.483Z,2.70
2023-01-29T03:19:59.458Z,2.50
2023-01-29T03:20:59.449Z,2.50
2023-01-29T03:21:59.805Z,2.30
2023-01-29T03:22:59.436Z,2.50
2023-01-29T03:23:59.486Z,2.30
2023-01-29T03:24:59.422Z,2.30
2023-01-29T03:25:59.384Z,2.30
2023-01-29T03:26:59.441Z,2.20
2023-01-29T03:27:59.379Z,2.30
2023-01-29T03:28:59.390Z,2.40
2023-01-29T03:29:59.370Z,2.40
2023-01-29T03:30:59.458Z,2.50
2023-01-29T03:31:59.391Z,2.60
2023-01-29T03:32:59.341Z,2.30
2023-01-29T03:33:59.316Z,2.00
2023-01-29T03:34:59.326Z,2.20
2023-01-29T03:35:59.287Z,2.40
2023-01-29T03:36:59.289Z,2.40
2023-01-29T03:37:59.272Z,2.60
2023-01-29T03:38:59.282Z,2.10
2023-01-29T03:39:59.251Z,2.40
2023-01-29T03:40:59.259Z,3.10
2023-01-29T03:41:59.229Z,2.40
2023-01-29T03:42:59.232Z,2.70
2023-01-29T03:43:59.210Z,2.50
2023-01-29T03:44:59.224Z,2.40
2023-01-29T03:45:59.283Z,2.60
2023-01-29T03:46:59.196Z,2.80
2023-01-29T03:47:59.159Z,3.00
2023-01-29T03:48:59.191Z,2.80
2023-01-29T03:49:59.138Z,2.40
2023-01-29T03:50:59.159Z,2.40
2023-01-29T03:51:59.121Z,2.20
2023-01-29T03:52:59.139Z,2.80
2023-01-29T03:53:59.114Z,2.20
2023-01-29T03:54:59.107Z,2.00
2023-01-29T03:55:59.085Z,1.90
2023-01-29T03:56:59.085Z,2.20
2023-01-29T03:57:59.061Z,2.50
2023-01-29T03:58:59.080Z,2.20
2023-01-29T03:59:59.056Z,2.00
2023-01-29T04:00:59.046Z,2.30
2023-01-29T04:01:59.022Z,2.00
2023-01-29T04:02:59.039Z,2.50
2023-01-29T04:03:59.064Z,2.80
2023-01-29T04:04:59.020Z,2.20
2023-01-29T04:05:58.980Z,2.60
2023-01-29T04:06:58.999Z,2.40
2023-01-29T04:07:58.976Z,3.00
2023-01-29T04:08:58.971Z,2.30
2023-01-29T04:09:58.949Z,2.20
2023-01-29T04:10:58.945Z,2.30
2023-01-29T04:11:58.920Z,2.90
2023-01-29T04:12:58.940Z,2.40
2023-01-29T04:13:58.900Z,2.50
2023-01-29T04:14:58.928Z,2.50
2023-01-29T04:15:58.891Z,2.50
2023-01-29T04:16:58.889Z,2.30
2023-01-29T04:17:58.858Z,2.70
2023-01-29T04:18:58.882Z,2.20
2023-01-29T04:19:58.847Z,2.50
2023-01-29T04:20:58.859Z,2.20
2023-01-29T04:21:58.818Z,2.60
2023-01-29T04:22:58.822Z,2.20
2023-01-29T04:23:58.883Z,2.20
2023-01-29T04:24:58.809Z,2.40
2023-01-29T04:25:58.787Z,1.70
2023-01-29T04:26:58.793Z,2.40
2023-01-29T04:27:58.757Z,2.90
2023-01-29T04:28:58.779Z,2.20
2023-01-29T04:29:58.741Z,2.20
2023-01-29T04:30:58.882Z,2.60
2023-01-29T04:31:58.744Z,2.60
2023-01-29T04:32:58.735Z,2.40
2023-01-29T04:33:58.698Z,2.20
2023-01-29T04:34:58.716Z,2.50
2023-01-29T04:35:58.676Z,2.50
2023-01-29T04:36:58.706Z,2.90
2023-01-29T04:37:58.670Z,2.80
2023-01-29T04:38:58.684Z,2.60
2023-01-29T04:39:58.635Z,2.50
2023-01-29T04:40:58.695Z,2.30
2023-01-29T04:41:58.627Z,2.20
2023-01-29T04:42:58.640Z,2.60
2023-01-29T04:43:58.599Z,2.00
2023-01-29T04:44:58.601Z,2.50
2023-01-29T04:45:58.576Z,2.90
2023-01-29T04:46:58.614Z,3.40
2023-01-29T04:47:58.556Z,2.20
2023-01-29T04:48:58.574Z,2.30
2023-01-29T04:49:58.537Z,2.40
2023-01-29T04:50:58.556Z,2.10
2023-01-29T04:51:58.516Z,2.50
2023-01-29T04:52:58.569Z,2.70
2023-01-29T04:53:58.495Z,2.50
2023-01-29T04:54:58.513Z,2.90
2023-01-29T04:55:58.493Z,2.60
2023-01-29T04:56:58.479Z,2.20
2023-01-29T04:57:58.470Z,2.60
2023-01-29T04:58:58.460Z,2.80
2023-01-29T04:59:58.436Z,3.00
2023-01-29T05:00:58.465Z,3.00
2023-01-29T05:01:58.441Z,3.00
2023-01-29T05:02:58.494Z,2.80
2023-01-29T05:03:58.395Z,2.50
2023-01-29T05:04:58.415Z,2.30
2023-01-29T05:05:58.382Z,2.70
2023-01-29T05:06:58.384Z,2.50
2023-01-29T05:07:58.362Z,2.80
2023-01-29T05:08:58.359Z,2.40
2023-01-29T05:09:58.335Z,2.70
2023-01-29T05:10:58.351Z,2.50
2023-01-29T05:11:58.313Z,3.00
2023-01-29T05:12:58.333Z,2.80
2023-01-29T05:13:58.317Z,2.60
2023-01-29T05:14:58.287Z,2.60
2023-01-29T05:15:58.326Z,2.20
2023-01-29T05:16:58.271Z,2.20
2023-01-29T05:17:58.291Z,2.40
2023-01-29T05:18:58.269Z,2.60
2023-01-29T05:19:58.254Z,2.40
2023-01-29T05:20:58.223Z,2.80
2023-01-29T05:21:58.228Z,2.40
2023-01-29T05:22:58.207Z,2.30
2023-01-29T05:23:58.236Z,2.10
2023-01-29T05:24:58.210Z,2.60
2023-01-29T05:25:58.222Z,2.70
2023-01-29T05:26:58.171Z,2.60
2023-01-29T05:27:58.191Z,2.00
2023-01-29T05:28:58.162Z,2.60
2023-01-29T05:29:58.164Z,2.90
2023-01-29T05:30:58.328Z,2.80
2023-01-29T05:31:58.165Z,2.70
2023-01-29T05:32:58.104Z,2.40
2023-01-29T05:33:58.124Z,2.60
2023-01-29T05:34:58.099Z,2.50
2023-01-29T05:35:58.107Z,2.40
2023-01-29T05:36:58.068Z,2.30
2023-01-29T05:37:58.084Z,2.50
2023-01-29T05:38:58.055Z,2.70
2023-01-29T05:39:58.061Z,2.70
2023-01-29T05:40:58.027Z,2.40
2023-01-29T05:41:58.029Z,2.40
2023-01-29T05:42:58.005Z,2.60
2023-01-29T05:43:58.032Z,2.80
2023-01-29T05:44:58.027Z,2.70
2023-01-29T05:45:58.037Z,2.80
2023-01-29T05:46:57.968Z,3.00
2023-01-29T05:47:57.979Z,2.70
2023-01-29T05:48:57.948Z,2.60
2023-01-29T05:49:57.982Z,2.30
2023-01-29T05:50:57.922Z,2.60
2023-01-29T05:51:57.946Z,2.30
2023-01-29T05:52:57.912Z,2.50
2023-01-29T05:53:57.924Z,2.40
2023-01-29T05:54:57.885Z,2.30
2023-01-29T05:55:57.911Z,2.30
2023-01-29T05:56:57.862Z,2.20
2023-01-29T05:57:57.879Z,2.60
2023-01-29T05:58:57.844Z,2.50
2023-01-29T05:59:57.848Z,2.90
2023-01-29T06:00:57.843Z,2.60
2023-01-29T06:01:57.874Z,2.40
2023-01-29T06:02:57.870Z,2.60
2023-01-29T06:03:57.824Z,2.70
2023-01-29T06:04:57.792Z,2.50
2023-01-29T06:05:57.789Z,2.60
2023-01-29T06:06:57.767Z,2.20
2023-01-29T06:07:57.769Z,2.70
2023-01-29T06:08:57.752Z,2.80
2023-01-29T06:09:57.763Z,2.90
2023-01-29T06:10:57.736Z,2.40
2023-01-29T06:11:57.750Z,2.60
2023-01-29T06:12:57.714Z,2.80
2023-01-29T06:13:57.708Z,3.30
2023-01-29T06:14:57.690Z,3.20
2023-01-29T06:15:57.783Z,3.00
2023-01-29T06:16:57.659Z,3.20
2023-01-29T06:17:57.682Z,3.30
2023-01-29T06:18:57.650Z,3.70
2023-01-29T06:19:57.671Z,3.10
2023-01-29T06:20:57.628Z,2.60
2023-01-29T06:21:57.720Z,2.80
2023-01-29T06:22:57.604Z,3.40
2023-01-29T06:23:57.615Z,3.10
2023-01-29T06:24:57.587Z,3.30
2023-01-29T06:25:57.553Z,2.90
2023-01-29T06:26:57.509Z,3.00
2023-01-29T06:27:59.450Z,3.30
2023-01-29T06:28:57.542Z,3.20
2023-01-29T06:29:57.585Z,2.40
2023-01-29T06:31:01.285Z,2.60
2023-01-29T06:31:57.675Z,3.40
2023-01-29T06:32:57.501Z,3.10
2023-01-29T06:33:57.524Z,3.00
2023-01-29T06:34:57.438Z,2.40
2023-01-29T06:35:57.462Z,3.00
2023-01-29T06:36:57.436Z,3.40
2023-01-29T06:37:57.417Z,2.90
2023-01-29T06:38:57.398Z,3.10
2023-01-29T06:39:57.392Z,2.60
2023-01-29T06:40:57.371Z,3.20
2023-01-29T06:41:57.419Z,3.50
2023-01-29T06:42:57.359Z,3.20
2023-01-29T06:43:57.373Z,3.20
2023-01-29T06:44:57.332Z,3.30
2023-01-29T06:45:57.455Z,3.10
2023-01-29T06:46:57.306Z,3.10
2023-01-29T06:47:58.791Z,3.00
2023-01-29T06:48:57.292Z,3.50
2023-01-29T06:49:57.294Z,3.00
2023-01-29T06:50:57.276Z,3.60
2023-01-29T06:51:57.296Z,3.10
2023-01-29T06:52:57.250Z,3.40
2023-01-29T06:53:57.277Z,3.10
2023-01-29T06:54:57.227Z,2.90
2023-01-29T06:55:57.250Z,3.80
2023-01-29T06:56:57.208Z,3.30
2023-01-29T06:57:57.239Z,3.30
2023-01-29T06:58:57.190Z,3.10
2023-01-29T06:59:57.216Z,3.50
2023-01-29T07:00:57.211Z,2.90
2023-01-29T07:01:57.213Z,3.60
2023-01-29T07:02:57.146Z,3.00
2023-01-29T07:03:57.173Z,3.10
2023-01-29T07:04:57.130Z,3.00
2023-01-29T07:05:57.136Z,2.90
2023-01-29T07:06:57.124Z,3.10
2023-01-29T07:07:57.111Z,3.00
2023-01-29T07:08:57.090Z,3.10
2023-01-29T07:09:57.106Z,2.90
2023-01-29T07:10:57.070Z,2.90
2023-01-29T07:11:57.069Z,2.90
2023-01-29T07:12:57.060Z,3.20
2023-01-29T07:13:57.067Z,2.90
2023-01-29T07:14:57.024Z,3.60
2023-01-29T07:15:57.048Z,3.40
2023-01-29T07:16:57.006Z,3.20
2023-01-29T07:17:57.036Z,2.70
2023-01-29T07:18:56.985Z,3.00
2023-01-29T07:19:57.002Z,3.60
2023-01-29T07:20:56.975Z,4.00
2023-01-29T07:21:56.988Z,2.60
2023-01-29T07:22:56.947Z,3.40
2023-01-29T07:23:57.022Z,3.10
2023-01-29T07:24:56.928Z,3.40
2023-01-29T07:25:56.944Z,2.80
2023-01-29T07:26:56.908Z,3.20
2023-01-29T07:27:57.770Z,3.40
2023-01-29T07:28:56.909Z,3.40
2023-01-29T07:29:56.896Z,3.20
2023-01-29T07:30:56.896Z,3.40
2023-01-29T07:31:57.020Z,3.20
2023-01-29T07:32:56.847Z,3.00
2023-01-29T07:33:56.865Z,3.10
2023-01-29T07:34:56.834Z,2.60
2023-01-29T07:35:56.831Z,2.60
2023-01-29T07:36:56.821Z,2.50
2023-01-29T07:37:56.810Z,2.90
2023-01-29T07:38:56.795Z,2.50
2023-01-29T07:39:56.809Z,2.60
2023-01-29T07:40:56.766Z,2.60
2023-01-29T07:41:56.769Z,2.80
2023-01-29T07:42:56.744Z,2.60
2023-01-29T07:43:56.758Z,2.90
2023-01-29T07:44:56.738Z,2.90
2023-01-29T07:45:56.949Z,2.90
2023-01-29T07:46:56.703Z,3.20
2023-01-29T07:47:56.733Z,3.30
2023-01-29T07:48:56.703Z,2.90
2023-01-29T07:49:56.708Z,3.40
2023-01-29T07:50:56.682Z,2.80
2023-01-29T07:51:56.667Z,3.30
2023-01-29T07:52:56.663Z,3.40
2023-01-29T07:53:56.674Z,3.20
2023-01-29T07:54:56.621Z,3.10
2023-01-29T07:55:56.636Z,3.10
2023-01-29T07:56:56.609Z,3.00
2023-01-29T07:57:56.607Z,3.10
2023-01-29T07:58:56.607Z,3.30
2023-01-29T07:59:56.598Z,3.00
2023-01-29T08:00:56.600Z,2.90
2023-01-29T08:01:56.629Z,3.40
2023-01-29T08:02:56.544Z,2.90
2023-01-29T08:03:56.562Z,3.00
2023-01-29T08:04:56.554Z,3.10
2023-01-29T08:05:56.557Z,3.10
2023-01-29T08:06:56.500Z,3.70
2023-01-29T08:08:06.103Z,3.20
2023-01-29T08:08:56.486Z,3.00
2023-01-29T08:09:56.513Z,4.00
2023-01-29T08:10:56.472Z,3.00
2023-01-29T08:11:56.497Z,3.50
2023-01-29T08:12:56.443Z,3.00
2023-01-29T08:13:56.461Z,3.20
2023-01-29T08:14:56.420Z,3.30
2023-01-29T08:15:56.435Z,3.10
2023-01-29T08:16:56.400Z,3.60
2023-01-29T08:17:58.294Z,2.90
2023-01-29T08:18:56.384Z,3.00
2023-01-29T08:19:56.390Z,3.30
2023-01-29T08:20:56.378Z,3.00
2023-01-29T08:21:56.376Z,3.30
2023-01-29T08:22:56.338Z,3.60
2023-01-29T08:23:56.414Z,3.30
2023-01-29T08:25:06.276Z,2.90
2023-01-29T08:25:56.479Z,2.70
2023-01-29T08:26:56.309Z,2.80
2023-01-29T08:27:56.305Z,3.20
2023-01-29T08:28:56.277Z,3.20
2023-01-29T08:29:56.298Z,3.40
2023-01-29T08:30:56.320Z,3.50
2023-01-29T08:31:56.330Z,3.20
2023-01-29T08:32:56.268Z,4.00
2023-01-29T08:33:56.246Z,3.50
2023-01-29T08:34:56.221Z,3.10
2023-01-29T08:35:56.236Z,3.20
2023-01-29T08:36:56.209Z,3.40
2023-01-29T08:37:56.210Z,3.40
2023-01-29T08:38:56.181Z,3.30
2023-01-29T08:39:56.200Z,3.10
2023-01-29T08:40:56.156Z,3.90
2023-01-29T08:41:56.192Z,3.50
2023-01-29T08:42:56.139Z,3.00
2023-01-29T08:43:56.144Z,3.70
2023-01-29T08:44:56.122Z,3.20
2023-01-29T08:45:56.168Z,4.20
2023-01-29T08:46:56.096Z,3.60
2023-01-29T08:47:56.120Z,3.80
2023-01-29T08:48:56.075Z,3.70
2023-01-29T08:49:56.097Z,3.40
2023-01-29T08:50:56.062Z,3.60
2023-01-29T08:51:56.076Z,3.10
2023-01-29T08:52:56.054Z,3.10
2023-01-29T08:53:56.061Z,3.90
2023-01-29T08:54:56.032Z,2.70
2023-01-29T08:55:56.037Z,3.60
2023-01-29T08:56:56.007Z,3.30
2023-01-29T08:57:56.024Z,2.90
2023-01-29T08:58:57.309Z,3.40
2023-01-29T08:59:55.983Z,3.10
2023-01-29T09:00:56.016Z,3.10
2023-01-29T09:01:55.961Z,3.00
2023-01-29T09:02:55.950Z,3.40
2023-01-29T09:03:55.957Z,3.40
2023-01-29T09:04:55.922Z,3.60
2023-01-29T09:05:55.924Z,3.50
2023-01-29T09:06:55.912Z,3.40
2023-01-29T09:07:55.919Z,2.90
2023-01-29T09:08:55.888Z,3.40
2023-01-29T09:09:55.901Z,3.00
2023-01-29T09:10:55.859Z,3.50
2023-01-29T09:11:55.879Z,4.00
2023-01-29T09:12:55.840Z,2.90
2023-01-29T09:13:55.853Z,3.30
2023-01-29T09:14:55.817Z,3.50
2023-01-29T09:15:56.863Z,3.20
2023-01-29T09:16:55.834Z,3.50
2023-01-29T09:17:55.804Z,3.00
2023-01-29T09:18:55.800Z,3.30
2023-01-29T09:19:55.784Z,3.20
2023-01-29T09:20:55.776Z,3.20
2023-01-29T09:21:55.768Z,3.00
2023-01-29T09:22:55.739Z,3.20
2023-01-29T09:23:55.762Z,3.40
2023-01-29T09:24:55.734Z,3.70
2023-01-29T09:25:55.727Z,3.60
2023-01-29T09:26:55.710Z,4.10
2023-01-29T09:27:55.705Z,3.30
2023-01-29T09:28:55.676Z,3.50
2023-01-29T09:29:55.679Z,3.30
2023-01-29T09:30:55.782Z,3.10
2023-01-29T09:31:55.775Z,3.40
2023-01-29T09:32:55.669Z,3.60
2023-01-29T09:33:55.636Z,3.20
2023-01-29T09:34:55.643Z,3.60
2023-01-29T09:35:55.612Z,3.60
2023-01-29T09:36:55.610Z,3.00
2023-01-29T09:37:55.588Z,2.80
2023-01-29T09:38:55.607Z,3.30
2023-01-29T09:39:55.576Z,3.50
2023-01-29T09:40:55.603Z,3.30
2023-01-29T09:41:55.548Z,2.80
2023-01-29T09:42:55.567Z,3.40
2023-01-29T09:43:55.524Z,2.90
2023-01-29T09:44:55.542Z,3.20
2023-01-29T09:45:55.532Z,3.10
2023-01-29T09:46:55.539Z,3.50
2023-01-29T09:47:55.491Z,3.60
2023-01-29T09:48:55.511Z,3.20
2023-01-29T09:49:55.467Z,3.60
2023-01-29T09:50:55.490Z,2.90
2023-01-29T09:51:55.444Z,3.00
2023-01-29T09:52:55.463Z,3.20
2023-01-29T09:53:55.426Z,2.90
2023-01-29T09:54:55.453Z,3.10
2023-01-29T09:55:55.403Z,2.90
2023-01-29T09:56:56.099Z,3.30
2023-01-29T09:57:55.382Z,3.00
2023-01-29T09:58:55.402Z,3.30
2023-01-29T09:59:55.382Z,3.00
2023-01-29T10:00:55.379Z,3.30
2023-01-29T10:01:55.446Z,3.00
2023-01-29T10:02:55.357Z,2.70
2023-01-29T10:03:55.325Z,3.20
2023-01-29T10:04:55.344Z,3.10
2023-01-29T10:05:55.318Z,3.00
2023-01-29T10:06:55.359Z,3.40
2023-01-29T10:07:55.284Z,2.70
2023-01-29T10:08:55.302Z,2.90
2023-01-29T10:09:55.264Z,2.90
2023-01-29T10:10:55.292Z,3.40
2023-01-29T10:11:57.999Z,2.60
2023-01-29T10:12:55.266Z,3.30
2023-01-29T10:13:55.225Z,3.30
2023-01-29T10:14:55.243Z,3.30
2023-01-29T10:15:55.204Z,3.60
2023-01-29T10:16:55.265Z,3.40
2023-01-29T10:17:55.182Z,2.80
2023-01-29T10:18:55.192Z,3.20
2023-01-29T10:19:55.162Z,3.50
2023-01-29T10:20:55.168Z,3.70
2023-01-29T10:21:55.168Z,3.00
2023-01-29T10:22:55.162Z,2.80
2023-01-29T10:23:55.120Z,3.20
2023-01-29T10:24:55.145Z,2.90
2023-01-29T10:25:55.103Z,2.80
2023-01-29T10:26:55.112Z,3.10
2023-01-29T10:27:55.091Z,2.80
2023-01-29T10:28:55.112Z,2.70
2023-01-29T10:29:55.063Z,3.50
2023-01-29T10:30:55.129Z,3.40
2023-01-29T10:31:55.139Z,3.00
2023-01-29T10:32:55.061Z,3.30
2023-01-29T10:34:01.959Z,3.50
2023-01-29T10:34:55.052Z,3.90
2023-01-29T10:35:55.948Z,3.20
2023-01-29T10:36:55.007Z,2.90
2023-01-29T10:37:54.994Z,3.40
2023-01-29T10:38:54.990Z,3.40
2023-01-29T10:39:54.967Z,3.00
2023-01-29T10:40:54.972Z,3.10
2023-01-29T10:41:54.945Z,3.40
2023-01-29T10:42:54.972Z,3.50
2023-01-29T10:43:54.925Z,3.30
2023-01-29T10:44:54.928Z,2.90
2023-01-29T10:45:54.903Z,2.90
2023-01-29T10:46:54.921Z,2.60
2023-01-29T10:47:54.895Z,3.40
2023-01-29T10:48:54.892Z,3.00
2023-01-29T10:49:54.871Z,3.10
2023-01-29T10:50:54.879Z,3.30
2023-01-29T10:51:54.840Z,3.20
2023-01-29T10:52:57.040Z,3.30
2023-01-29T10:53:54.837Z,3.00
2023-01-29T10:54:54.828Z,3.00
2023-01-29T10:55:54.819Z,2.80
2023-01-29T10:56:54.807Z,3.40
2023-01-29T10:57:54.781Z,3.10
2023-01-29T10:58:54.793Z,3.20
2023-01-29T10:59:54.775Z,3.40
2023-01-29T11:00:54.769Z,3.20
2023-01-29T11:01:54.796Z,3.50
2023-01-29T11:02:54.890Z,3.00
2023-01-29T11:03:54.723Z,2.60
2023-01-29T11:04:54.746Z,3.00
2023-01-29T11:05:54.715Z,3.10
2023-01-29T11:06:54.706Z,3.60
2023-01-29T11:07:54.683Z,3.30
2023-01-29T11:08:54.701Z,3.30
2023-01-29T11:09:54.685Z,3.50
2023-01-29T11:10:54.706Z,3.20
2023-01-29T11:11:54.644Z,2.90
2023-01-29T11:12:54.667Z,3.40
2023-01-29T11:13:54.625Z,3.60
2023-01-29T11:14:54.648Z,3.30
2023-01-29T11:15:54.611Z,2.90
2023-01-29T11:16:54.704Z,3.00
2023-01-29T11:17:54.578Z,3.20
2023-01-29T11:18:54.588Z,3.30
2023-01-29T11:19:54.567Z,2.90
2023-01-29T11:20:54.576Z,3.40
2023-01-29T11:21:54.541Z,3.10
2023-01-29T11:22:54.571Z,3.50
2023-01-29T11:23:54.525Z,3.60
2023-01-29T11:24:54.543Z,3.80
2023-01-29T11:25:54.502Z,3.00
2023-01-29T11:26:54.543Z,3.10
2023-01-29T11:27:54.479Z,3.20
2023-01-29T11:28:54.488Z,3.30
2023-01-29T11:29:54.459Z,3.50
2023-01-29T11:30:54.551Z,3.20
2023-01-29T11:31:54.524Z,3.00
2023-01-29T11:32:54.453Z,3.10
2023-01-29T11:33:54.415Z,3.40
2023-01-29T11:34:54.425Z,3.10
2023-01-29T11:35:54.406Z,3.40
2023-01-29T11:36:54.404Z,3.30
2023-01-29T11:37:54.383Z,3.50
2023-01-29T11:38:54.381Z,2.80
2023-01-29T11:40:00.888Z,3.30
2023-01-29T11:40:54.384Z,3.30
2023-01-29T11:41:54.342Z,3.70
2023-01-29T11:42:54.406Z,3.40
2023-01-29T11:43:54.323Z,3.40
2023-01-29T11:44:54.340Z,3.30
2023-01-29T11:45:54.301Z,3.20
2023-01-29T11:46:54.323Z,3.50
2023-01-29T11:47:54.288Z,3.30
2023-01-29T11:48:59.009Z,3.60
2023-01-29T11:49:54.278Z,3.50
2023-01-29T11:50:54.286Z,3.20
2023-01-29T11:51:54.244Z,3.30
2023-01-29T11:52:54.246Z,3.10
2023-01-29T11:53:54.217Z,2.90
2023-01-29T11:54:54.269Z,3.10
2023-01-29T11:55:54.253Z,3.00
2023-01-29T11:56:54.212Z,2.80
2023-01-29T11:57:54.227Z,3.90
2023-01-29T11:58:54.180Z,3.30
2023-01-29T11:59:54.173Z,3.60
2023-01-29T12:00:54.171Z,3.40
2023-01-29T12:01:54.133Z,3.50
2023-01-29T12:02:54.173Z,3.70
2023-01-29T12:03:54.170Z,3.50
2023-01-29T12:04:54.126Z,3.30
2023-01-29T12:05:54.140Z,3.10
2023-01-29T12:06:54.101Z,3.30
2023-01-29T12:07:54.071Z,3.00
2023-01-29T12:08:54.092Z,3.20
2023-01-29T12:09:54.049Z,3.90
2023-01-29T12:10:54.064Z,3.10
2023-01-29T12:11:54.047Z,3.10
2023-01-29T12:12:54.038Z,3.20
2023-01-29T12:13:54.019Z,3.10
2023-01-29T12:14:54.013Z,3.10
2023-01-29T12:15:54.932Z,2.90
2023-01-29T12:16:53.993Z,3.60
2023-01-29T12:17:54.000Z,4.10
2023-01-29T12:18:53.971Z,3.30
2023-01-29T12:19:53.944Z,3.60
2023-01-29T12:20:53.948Z,3.40
2023-01-29T12:21:53.967Z,2.90
2023-01-29T12:22:53.940Z,3.60
2023-01-29T12:23:53.931Z,3.40
2023-01-29T12:24:53.923Z,3.60
2023-01-29T12:25:53.885Z,2.80
2023-01-29T12:26:53.891Z,3.10
2023-01-29T12:27:53.879Z,3.20
2023-01-29T12:28:53.871Z,3.60
2023-01-29T12:29:53.854Z,3.50
2023-01-29T12:30:53.896Z,3.30
2023-01-29T12:31:53.826Z,3.20
2023-01-29T12:32:53.834Z,3.60
2023-01-29T12:33:53.811Z,3.20
2023-01-29T12:34:53.825Z,3.50
2023-01-29T12:35:53.780Z,3.20
2023-01-29T12:36:53.790Z,3.40
2023-01-29T12:37:53.773Z,3.50
2023-01-29T12:38:53.792Z,3.20
2023-01-29T12:39:53.737Z,3.60
2023-01-29T12:40:53.747Z,3.60
2023-01-29T12:41:53.718Z,3.50
2023-01-29T12:42:53.723Z,3.20
2023-01-29T12:43:53.719Z,3.80
2023-01-29T12:44:53.705Z,3.10
2023-01-29T12:45:53.683Z,3.50
2023-01-29T12:46:53.701Z,3.40
2023-01-29T12:47:53.664Z,3.10
2023-01-29T12:48:53.682Z,3.50
2023-01-29T12:49:53.637Z,3.40
2023-01-29T12:50:53.662Z,3.70
2023-01-29T12:51:53.623Z,3.60
2023-01-29T12:52:53.632Z,3.50
2023-01-29T12:53:53.627Z,3.10
2023-01-29T12:54:53.595Z,3.80
2023-01-29T12:55:53.570Z,3.90
2023-01-29T12:56:53.575Z,3.40
2023-01-29T12:57:53.551Z,4.10
2023-01-29T12:58:53.608Z,3.60
2023-01-29T12:59:53.598Z,3.60
2023-01-29T13:00:53.628Z,4.00
2023-01-29T13:01:53.509Z,3.10
2023-01-29T13:02:53.589Z,4.10
2023-01-29T13:03:53.509Z,3.90
2023-01-29T13:04:53.512Z,4.20
2023-01-29T13:05:53.508Z,3.00
2023-01-29T13:06:53.507Z,3.50
2023-01-29T13:07:53.447Z,3.10
2023-01-29T13:08:53.462Z,4.10
2023-01-29T13:09:53.444Z,4.00
2023-01-29T13:10:53.445Z,3.80
2023-01-29T13:11:53.412Z,4.10
2023-01-29T13:12:53.422Z,3.60
2023-01-29T13:13:54.361Z,4.00
2023-01-29T13:14:53.876Z,3.20
2023-01-29T13:15:53.361Z,4.30
2023-01-29T13:16:53.385Z,3.20
2023-01-29T13:17:53.360Z,3.40